Pisces Leader — HPCT — position and weather

sailwx.info

Track history (hours):
 
Tides and Currents Weather Stations Pressure Air Temp Water Temp Dewpoint Dewpoint Depression Visibility Wind Speed Wind Dir Waves Ship Positions

Pisces Leader

Last reported at 2018-Apr-26 03:29 UTC. Time now 2018-Apr-26 03:31 UTC.
Position N 35°04' E 136°53'.

Length 199 m; draft 8.6 m.

Type: Cargo ship. MMSI: 353987000.

Date/timePositionNaut miles runAvg speedWind from/ knotsBaromVisibWave heightAir tempDewpointWater temp
2018-Apr-26 03:29N 35°04' E 136°53'0 0.0
2018-Apr-26 02:59N 35°04' E 136°53'0 0.0
2018-Apr-26 02:29N 35°04' E 136°53'0 0.0
2018-Apr-26 01:59N 35°04' E 136°53'0 0.0
2018-Apr-26 01:29N 35°04' E 136°53'0 0.0
2018-Apr-26 00:59N 35°04' E 136°53'0 0.0
2018-Apr-26 00:29N 35°04' E 136°53'0 0.0
2018-Apr-25 23:59N 35°04' E 136°53'0 0.0
2018-Apr-25 23:29N 35°04' E 136°53'0 0.0
2018-Apr-25 22:59N 35°04' E 136°53'0 0.0
2018-Apr-25 22:29N 35°04' E 136°53'0 0.1
2018-Apr-25 22:00N 35°04' E 136°53'2 4.6
2018-Apr-25 21:30N 35°02' E 136°51'612.4
2018-Apr-25 21:00N 34°56' E 136°47'714.0
2018-Apr-25 20:31N 34°50' E 136°47'816.1
2018-Apr-25 20:00N 34°42' E 136°51'815.3
2018-Apr-25 19:29N 34°36' E 136°57'711.4
2018-Apr-25 18:49N 34°32' E 137°05'2 5.7
2018-Apr-25 18:29N 34°31' E 137°07'31 3.2
2018-Apr-25 09:01N 34°22' E 137°42'0 2.2
2018-Apr-25 08:56N 34°22' E 137°42'1 2.5
2018-Apr-25 08:27N 34°22' E 137°41'1 2.6
2018-Apr-25 07:59N 34°21' E 137°39'4 2.7
2018-Apr-25 06:42N 34°21' E 137°35'1 2.9
2018-Apr-25 06:26N 34°21' E 137°34'11 3.0
2018-Apr-25 02:51N 34°18' E 137°22'10 2.7
2018-Apr-24 23:15N 34°14' E 137°11'2 0.3
2018-Apr-24 17:39N 34°15' E 137°09'0 2.2
2018-Apr-24 17:29N 34°14' E 137°09'19 2.5
2018-Apr-24 09:51N 34°32' E 137°02'310.0
2018-Apr-24 09:30N 34°34' E 136°59'713.7
2018-Apr-24 09:00N 34°39' E 136°53'917.0
2018-Apr-24 08:30N 34°46' E 136°47'816.5
2018-Apr-24 08:00N 34°54' E 136°45'713.5
2018-Apr-24 07:30N 34°60' E 136°49'5 9.4
2018-Apr-24 07:00N 35°03' E 136°53'0 0.5
2018-Apr-24 06:30N 35°04' E 136°53'0 0.0
2018-Apr-24 06:00N 35°04' E 136°53'0 0.0
2018-Apr-24 05:30N 35°04' E 136°53'0 0.0
2018-Apr-24 05:00N 35°04' E 136°53'0 0.0
2018-Apr-24 04:30N 35°04' E 136°53'0 0.0
2018-Apr-24 04:00N 35°04' E 136°53'0 0.0
2018-Apr-24 03:30N 35°04' E 136°53'0 0.0
2018-Apr-24 03:00N 35°04' E 136°53'0 0.0
2018-Apr-24 02:30N 35°04' E 136°53'0 0.0
2018-Apr-24 02:00N 35°04' E 136°53'0 0.0
2018-Apr-24 01:30N 35°04' E 136°53'0 0.0
2018-Apr-24 01:00N 35°04' E 136°53'0 0.0
2018-Apr-24 00:30N 35°04' E 136°53'0 0.0
2018-Apr-24 00:00N 35°04' E 136°53'0 0.0
2018-Apr-23 23:30N 35°04' E 136°53'0 0.0
2018-Apr-23 23:00N 35°04' E 136°53'0 0.0
2018-Apr-23 22:30N 35°04' E 136°53'0 0.1
2018-Apr-23 22:00N 35°04' E 136°53'2 3.4
2018-Apr-23 21:30N 35°03' E 136°51'0 0.7
2018-Apr-23 21:00N 35°03' E 136°51'0 0.0
2018-Apr-23 20:30N 35°03' E 136°51'0 0.0
2018-Apr-23 20:00N 35°03' E 136°51'0 0.0
2018-Apr-23 19:30N 35°03' E 136°51'0 0.0
2018-Apr-23 19:00N 35°03' E 136°51'0 0.0
2018-Apr-23 18:30N 35°03' E 136°51'0 0.0
2018-Apr-23 18:00N 35°03' E 136°51'0 0.0
2018-Apr-23 17:30N 35°03' E 136°51'0 0.0
2018-Apr-23 17:00N 35°03' E 136°51'0 0.0
2018-Apr-23 16:30N 35°03' E 136°51'0 0.0
2018-Apr-23 16:00N 35°03' E 136°51'0 0.0
2018-Apr-23 15:30N 35°03' E 136°51'0 0.0
2018-Apr-23 15:00N 35°03' E 136°51'0 0.0
2018-Apr-23 14:30N 35°03' E 136°51'0 0.0
2018-Apr-23 14:00N 35°03' E 136°51'0 0.0
2018-Apr-23 13:30N 35°03' E 136°51'0 0.0
2018-Apr-23 13:00N 35°03' E 136°51'0 0.0
2018-Apr-23 12:30N 35°03' E 136°51'0 0.0
2018-Apr-23 12:00N 35°03' E 136°51'0 0.0
2018-Apr-23 11:30N 35°03' E 136°51'0 0.0
2018-Apr-23 11:00N 35°03' E 136°51'0 0.0
2018-Apr-23 10:30N 35°03' E 136°51'0 0.0
2018-Apr-23 10:00N 35°03' E 136°51'0 0.0
2018-Apr-23 09:30N 35°03' E 136°51'0 0.0
2018-Apr-23 09:00N 35°03' E 136°51'0 0.0
2018-Apr-23 08:30N 35°03' E 136°51'0 0.0
2018-Apr-23 08:00N 35°03' E 136°51'0 0.0
2018-Apr-23 07:30N 35°03' E 136°51'0 0.0
2018-Apr-23 07:00N 35°03' E 136°51'0 0.0
2018-Apr-23 06:30N 35°03' E 136°51'0 0.0
2018-Apr-23 06:00N 35°03' E 136°51'0 0.0
2018-Apr-23 05:30N 35°03' E 136°51'0 0.0
2018-Apr-23 05:00N 35°03' E 136°51'0 0.0
2018-Apr-23 04:30N 35°03' E 136°51'0 0.0
2018-Apr-23 04:00N 35°03' E 136°51'0 0.0
2018-Apr-23 03:30N 35°03' E 136°51'0 0.0
2018-Apr-23 03:00N 35°03' E 136°51'0 0.0
2018-Apr-23 02:30N 35°03' E 136°51'0 0.0
2018-Apr-23 02:00N 35°03' E 136°51'0 0.0
2018-Apr-23 01:30N 35°03' E 136°51'0 0.0
2018-Apr-23 01:00N 35°03' E 136°51'0 0.0
2018-Apr-23 00:30N 35°03' E 136°51'0 0.0
2018-Apr-23 00:00N 35°03' E 136°51'0 0.0
2018-Apr-22 23:30N 35°03' E 136°51'0 0.0
2018-Apr-22 23:00N 35°03' E 136°51'0 0.0
2018-Apr-22 22:31N 35°03' E 136°51'1 1.2
2018-Apr-22 22:00N 35°02' E 136°51'5 9.2
2018-Apr-22 21:30N 34°58' E 136°48'612.8
2018-Apr-22 21:00N 34°52' E 136°46'815.9
2018-Apr-22 20:30N 34°44' E 136°49'816.3
2018-Apr-22 20:00N 34°38' E 136°55'713.9
2018-Apr-22 19:30N 34°33' E 137°01'1210.2
2018-Apr-22 18:22N 34°22' E 137°06'512.0
2018-Apr-22 17:59N 34°18' E 137°08'1713.7
2018-Apr-22 16:45N 34°01' E 137°08'2 1.6
2018-Apr-22 15:45N 33°60' E 137°07'0 1.0
2018-Apr-22 15:28N 33°59' E 137°07'0 1.0
2018-Apr-22 15:00N 33°59' E 137°06'0 1.0
2018-Apr-22 14:30N 33°59' E 137°06'0 0.9
2018-Apr-22 14:00N 33°58' E 137°06'0 0.9
2018-Apr-22 13:30N 33°58' E 137°06'1 0.9
2018-Apr-22 12:52N 33°57' E 137°05'0 0.9
2018-Apr-22 12:27N 33°57' E 137°05'1 0.9
2018-Apr-22 11:47N 33°56' E 137°05'0 0.9
2018-Apr-22 11:30N 33°56' E 137°05'0 0.9
2018-Apr-22 11:00N 33°56' E 137°05'1 0.9
2018-Apr-22 10:18N 33°55' E 137°04'1 0.8
2018-Apr-22 08:42N 33°54' E 137°03'0 0.8
2018-Apr-22 08:30N 33°54' E 137°03'0 0.8
2018-Apr-22 08:00N 33°54' E 137°03'5 0.8
2018-Apr-22 02:07N 33°49' E 137°02'0 0.6
2018-Apr-22 02:00N 33°49' E 137°02'0 0.5
2018-Apr-22 01:30N 33°49' E 137°02'0 0.5
2018-Apr-22 00:52N 33°48' E 137°02'1 0.4
2018-Apr-21 22:59N 33°48' E 137°03'3 6.1
2018-Apr-21 22:25N 33°48' E 136°59'915.4
2018-Apr-21 21:51N 33°45' E 136°49'515.1
2018-Apr-21 21:30N 33°43' E 136°43'6515.4
2018-Apr-21 17:16N 32°58' E 135°47'415.5
2018-Apr-21 17:00N 32°55' E 135°44'1115.8
2018-Apr-21 16:19N 32°47' E 135°35'3716.7
2018-Apr-21 14:07N 32°21' E 135°04'417.2
2018-Apr-21 13:51N 32°18' E 135°00'  
Track history (hours):
 
Tides and Currents Weather Stations Pressure Air Temp Water Temp Dewpoint Dewpoint Depression Visibility Wind Speed Wind Dir Waves Ship Positions

Pisces Leader

Last reported at 2018-Apr-26 03:29 UTC. Time now 2018-Apr-26 03:31 UTC.
Position N 35°04' E 136°53'.

Length 199 m; draft 8.6 m.

Type: Cargo ship. MMSI: 353987000.

Date/timePositionNaut miles runAvg speedWind from/ knotsBaromVisibWave heightAir tempDewpointWater temp
2018-Apr-26 03:29N 35°04' E 136°53'0 0.0
2018-Apr-26 02:59N 35°04' E 136°53'0 0.0
2018-Apr-26 02:29N 35°04' E 136°53'0 0.0
2018-Apr-26 01:59N 35°04' E 136°53'0 0.0
2018-Apr-26 01:29N 35°04' E 136°53'0 0.0
2018-Apr-26 00:59N 35°04' E 136°53'0 0.0
2018-Apr-26 00:29N 35°04' E 136°53'0 0.0
2018-Apr-25 23:59N 35°04' E 136°53'0 0.0
2018-Apr-25 23:29N 35°04' E 136°53'0 0.0
2018-Apr-25 22:59N 35°04' E 136°53'0 0.0
2018-Apr-25 22:29N 35°04' E 136°53'0 0.1
2018-Apr-25 22:00N 35°04' E 136°53'2 4.6
2018-Apr-25 21:30N 35°02' E 136°51'612.4
2018-Apr-25 21:00N 34°56' E 136°47'714.0
2018-Apr-25 20:31N 34°50' E 136°47'816.1
2018-Apr-25 20:00N 34°42' E 136°51'815.3
2018-Apr-25 19:29N 34°36' E 136°57'711.4
2018-Apr-25 18:49N 34°32' E 137°05'2 5.7
2018-Apr-25 18:29N 34°31' E 137°07'31 3.2
2018-Apr-25 09:01N 34°22' E 137°42'0 2.2
2018-Apr-25 08:56N 34°22' E 137°42'1 2.5
2018-Apr-25 08:27N 34°22' E 137°41'1 2.6
2018-Apr-25 07:59N 34°21' E 137°39'4 2.7
2018-Apr-25 06:42N 34°21' E 137°35'1 2.9
2018-Apr-25 06:26N 34°21' E 137°34'11 3.0
2018-Apr-25 02:51N 34°18' E 137°22'10 2.7
2018-Apr-24 23:15N 34°14' E 137°11'2 0.3
2018-Apr-24 17:39N 34°15' E 137°09'0 2.2
2018-Apr-24 17:29N 34°14' E 137°09'19 2.5
2018-Apr-24 09:51N 34°32' E 137°02'310.0
2018-Apr-24 09:30N 34°34' E 136°59'713.7
2018-Apr-24 09:00N 34°39' E 136°53'917.0
2018-Apr-24 08:30N 34°46' E 136°47'816.5
2018-Apr-24 08:00N 34°54' E 136°45'713.5
2018-Apr-24 07:30N 34°60' E 136°49'5 9.4
2018-Apr-24 07:00N 35°03' E 136°53'0 0.5
2018-Apr-24 06:30N 35°04' E 136°53'0 0.0
2018-Apr-24 06:00N 35°04' E 136°53'0 0.0
2018-Apr-24 05:30N 35°04' E 136°53'0 0.0
2018-Apr-24 05:00N 35°04' E 136°53'0 0.0
2018-Apr-24 04:30N 35°04' E 136°53'0 0.0
2018-Apr-24 04:00N 35°04' E 136°53'0 0.0
2018-Apr-24 03:30N 35°04' E 136°53'0 0.0
2018-Apr-24 03:00N 35°04' E 136°53'0 0.0
2018-Apr-24 02:30N 35°04' E 136°53'0 0.0
2018-Apr-24 02:00N 35°04' E 136°53'0 0.0
2018-Apr-24 01:30N 35°04' E 136°53'0 0.0
2018-Apr-24 01:00N 35°04' E 136°53'0 0.0
2018-Apr-24 00:30N 35°04' E 136°53'0 0.0
2018-Apr-24 00:00N 35°04' E 136°53'0 0.0
2018-Apr-23 23:30N 35°04' E 136°53'0 0.0
2018-Apr-23 23:00N 35°04' E 136°53'0 0.0
2018-Apr-23 22:30N 35°04' E 136°53'0 0.1
2018-Apr-23 22:00N 35°04' E 136°53'2 3.4
2018-Apr-23 21:30N 35°03' E 136°51'0 0.7
2018-Apr-23 21:00N 35°03' E 136°51'0 0.0
2018-Apr-23 20:30N 35°03' E 136°51'0 0.0
2018-Apr-23 20:00N 35°03' E 136°51'0 0.0
2018-Apr-23 19:30N 35°03' E 136°51'0 0.0
2018-Apr-23 19:00N 35°03' E 136°51'0 0.0
2018-Apr-23 18:30N 35°03' E 136°51'0 0.0
2018-Apr-23 18:00N 35°03' E 136°51'0 0.0
2018-Apr-23 17:30N 35°03' E 136°51'0 0.0
2018-Apr-23 17:00N 35°03' E 136°51'0 0.0
2018-Apr-23 16:30N 35°03' E 136°51'0 0.0
2018-Apr-23 16:00N 35°03' E 136°51'0 0.0
2018-Apr-23 15:30N 35°03' E 136°51'0 0.0
2018-Apr-23 15:00N 35°03' E 136°51'0 0.0
2018-Apr-23 14:30N 35°03' E 136°51'0 0.0
2018-Apr-23 14:00N 35°03' E 136°51'0 0.0
2018-Apr-23 13:30N 35°03' E 136°51'0 0.0
2018-Apr-23 13:00N 35°03' E 136°51'0 0.0
2018-Apr-23 12:30N 35°03' E 136°51'0 0.0
2018-Apr-23 12:00N 35°03' E 136°51'0 0.0
2018-Apr-23 11:30N 35°03' E 136°51'0 0.0
2018-Apr-23 11:00N 35°03' E 136°51'0 0.0
2018-Apr-23 10:30N 35°03' E 136°51'0 0.0
2018-Apr-23 10:00N 35°03' E 136°51'0 0.0
2018-Apr-23 09:30N 35°03' E 136°51'0 0.0
2018-Apr-23 09:00N 35°03' E 136°51'0 0.0
2018-Apr-23 08:30N 35°03' E 136°51'0 0.0
2018-Apr-23 08:00N 35°03' E 136°51'0 0.0
2018-Apr-23 07:30N 35°03' E 136°51'0 0.0
2018-Apr-23 07:00N 35°03' E 136°51'0 0.0
2018-Apr-23 06:30N 35°03' E 136°51'0 0.0
2018-Apr-23 06:00N 35°03' E 136°51'0 0.0
2018-Apr-23 05:30N 35°03' E 136°51'0 0.0
2018-Apr-23 05:00N 35°03' E 136°51'0 0.0
2018-Apr-23 04:30N 35°03' E 136°51'0 0.0
2018-Apr-23 04:00N 35°03' E 136°51'0 0.0
2018-Apr-23 03:30N 35°03' E 136°51'0 0.0
2018-Apr-23 03:00N 35°03' E 136°51'0 0.0
2018-Apr-23 02:30N 35°03' E 136°51'0 0.0
2018-Apr-23 02:00N 35°03' E 136°51'0 0.0
2018-Apr-23 01:30N 35°03' E 136°51'0 0.0
2018-Apr-23 01:00N 35°03' E 136°51'0 0.0
2018-Apr-23 00:30N 35°03' E 136°51'0 0.0
2018-Apr-23 00:00N 35°03' E 136°51'0 0.0
2018-Apr-22 23:30N 35°03' E 136°51'0 0.0
2018-Apr-22 23:00N 35°03' E 136°51'0 0.0
2018-Apr-22 22:31N 35°03' E 136°51'1 1.2
2018-Apr-22 22:00N 35°02' E 136°51'5 9.2
2018-Apr-22 21:30N 34°58' E 136°48'612.8
2018-Apr-22 21:00N 34°52' E 136°46'815.9
2018-Apr-22 20:30N 34°44' E 136°49'816.3
2018-Apr-22 20:00N 34°38' E 136°55'713.9
2018-Apr-22 19:30N 34°33' E 137°01'1210.2
2018-Apr-22 18:22N 34°22' E 137°06'512.0
2018-Apr-22 17:59N 34°18' E 137°08'1713.7
2018-Apr-22 16:45N 34°01' E 137°08'2 1.6
2018-Apr-22 15:45N 33°60' E 137°07'0 1.0
2018-Apr-22 15:28N 33°59' E 137°07'0 1.0
2018-Apr-22 15:00N 33°59' E 137°06'0 1.0
2018-Apr-22 14:30N 33°59' E 137°06'0 0.9
2018-Apr-22 14:00N 33°58' E 137°06'0 0.9
2018-Apr-22 13:30N 33°58' E 137°06'1 0.9
2018-Apr-22 12:52N 33°57' E 137°05'0 0.9
2018-Apr-22 12:27N 33°57' E 137°05'1 0.9
2018-Apr-22 11:47N 33°56' E 137°05'0 0.9
2018-Apr-22 11:30N 33°56' E 137°05'0 0.9
2018-Apr-22 11:00N 33°56' E 137°05'1 0.9
2018-Apr-22 10:18N 33°55' E 137°04'1 0.8
2018-Apr-22 08:42N 33°54' E 137°03'0 0.8
2018-Apr-22 08:30N 33°54' E 137°03'0 0.8
2018-Apr-22 08:00N 33°54' E 137°03'5 0.8
2018-Apr-22 02:07N 33°49' E 137°02'0 0.6
2018-Apr-22 02:00N 33°49' E 137°02'0 0.5
2018-Apr-22 01:30N 33°49' E 137°02'0 0.5
2018-Apr-22 00:52N 33°48' E 137°02'1 0.4
2018-Apr-21 22:59N 33°48' E 137°03'3 6.1
2018-Apr-21 22:25N 33°48' E 136°59'915.4
2018-Apr-21 21:51N 33°45' E 136°49'515.1
2018-Apr-21 21:30N 33°43' E 136°43'6515.4
2018-Apr-21 17:16N 32°58' E 135°47'415.5
2018-Apr-21 17:00N 32°55' E 135°44'1115.8
2018-Apr-21 16:19N 32°47' E 135°35'3716.7
2018-Apr-21 14:07N 32°21' E 135°04'417.2
2018-Apr-21 13:51N 32°18' E 135°00'  

Dump ship's entire track history